F/V Mailys Charlie — FMIW — position and weather

sailwx.info

Track history (hours):
 
Tides and Currents Weather Stations Pressure Air Temp Water Temp Dewpoint Dewpoint Depression Visibility Wind Speed Wind Dir Waves Ship Positions

F/V Mailys Charlie

Last reported at 2014-Sep-13 03:33 UTC. Time now 2014-Sep-17 07:34 UTC.
Position N 48°24' W 006°05'.

Length 19 m.

Type: Fishing. MMSI: 228240800.

Date/timePositionNaut miles runAvg speedWind from/ knotsBaromVisibWave heightAir tempDewpointWater temp
2014-Sep-13 03:33N 48°24' W 006°05'9 8.7
2014-Sep-13 02:33N 48°19' W 005°53'18 8.8
2014-Sep-13 00:33N 48°10' W 005°31'16 7.9
2014-Sep-12 22:33N 48°02' W 005°10'8 7.8
2014-Sep-12 21:34N 47°59' W 004°60'7 6.8
2014-Sep-12 20:33N 47°56' W 004°51'8 7.7
2014-Sep-12 19:33N 47°53' W 004°40'17 8.3
2014-Sep-12 17:33N 47°45' W 004°18'8 8.0
2014-Sep-12 16:33N 47°45' W 004°06'  
2014-Sep-09 07:33N 47°45' W 004°07'9 9.2
2014-Sep-09 06:33N 47°45' W 004°21'10 9.9
2014-Sep-09 05:33N 47°50' W 004°34'1110.1
2014-Sep-09 04:30N 47°55' W 004°48'1010.5
2014-Sep-09 03:33N 47°59' W 005°01'9 8.6
2014-Sep-09 02:33N 48°04' W 005°13'8 8.5
2014-Sep-09 01:33N 48°08' W 005°23'9 8.8
2014-Sep-09 00:33N 48°14' W 005°33'8 8.5
2014-Sep-08 23:33N 48°18' W 005°44'9 8.5
2014-Sep-08 22:33N 48°23' W 005°55'8 8.2
2014-Sep-08 21:33N 48°28' W 006°04'18 9.0
2014-Sep-08 19:33N 48°40' W 006°25'  
Track history (hours):
 
Tides and Currents Weather Stations Pressure Air Temp Water Temp Dewpoint Dewpoint Depression Visibility Wind Speed Wind Dir Waves Ship Positions

F/V Mailys Charlie

Last reported at 2014-Sep-13 03:33 UTC. Time now 2014-Sep-17 07:34 UTC.
Position N 48°24' W 006°05'.

Length 19 m.

Type: Fishing. MMSI: 228240800.

Date/timePositionNaut miles runAvg speedWind from/ knotsBaromVisibWave heightAir tempDewpointWater temp
2014-Sep-13 03:33N 48°24' W 006°05'9 8.7
2014-Sep-13 02:33N 48°19' W 005°53'18 8.8
2014-Sep-13 00:33N 48°10' W 005°31'16 7.9
2014-Sep-12 22:33N 48°02' W 005°10'8 7.8
2014-Sep-12 21:34N 47°59' W 004°60'7 6.8
2014-Sep-12 20:33N 47°56' W 004°51'8 7.7
2014-Sep-12 19:33N 47°53' W 004°40'17 8.3
2014-Sep-12 17:33N 47°45' W 004°18'8 8.0
2014-Sep-12 16:33N 47°45' W 004°06'  
2014-Sep-09 07:33N 47°45' W 004°07'9 9.2
2014-Sep-09 06:33N 47°45' W 004°21'10 9.9
2014-Sep-09 05:33N 47°50' W 004°34'1110.1
2014-Sep-09 04:30N 47°55' W 004°48'1010.5
2014-Sep-09 03:33N 47°59' W 005°01'9 8.6
2014-Sep-09 02:33N 48°04' W 005°13'8 8.5
2014-Sep-09 01:33N 48°08' W 005°23'9 8.8
2014-Sep-09 00:33N 48°14' W 005°33'8 8.5
2014-Sep-08 23:33N 48°18' W 005°44'9 8.5
2014-Sep-08 22:33N 48°23' W 005°55'8 8.2
2014-Sep-08 21:33N 48°28' W 006°04'18 9.0
2014-Sep-08 19:33N 48°40' W 006°25'  

Dump ship's entire track history